createdAt,value
2019-04-29T00:56:22.675Z,99973.30
2019-04-29T00:58:52.804Z,99977.09
2019-04-29T01:01:25.284Z,99969.76
2019-04-29T01:03:55.400Z,99971.93
2019-04-29T01:06:25.371Z,99973.09
2019-04-29T01:08:56.142Z,99972.94
2019-04-29T01:11:26.324Z,99972.42
2019-04-29T01:13:56.381Z,99969.32
2019-04-29T01:16:28.443Z,99972.05
2019-04-29T01:18:59.097Z,99966.71
2019-04-29T01:21:29.076Z,99966.34
2019-04-29T01:23:59.089Z,99966.25
2019-04-29T01:26:44.961Z,99968.38
2019-04-29T01:29:16.344Z,99960.55
2019-04-29T01:31:46.220Z,99957.47
2019-04-29T01:34:21.453Z,99961.70
2019-04-29T01:36:54.677Z,99960.55
2019-04-29T01:39:30.198Z,99958.05
2019-04-29T01:42:19.134Z,99958.52
2019-04-29T01:44:49.175Z,99958.83
2019-04-29T01:47:19.221Z,99969.38
2019-04-29T01:49:49.252Z,99970.02
2019-04-29T01:52:19.375Z,99966.51
2019-04-29T01:54:49.331Z,99969.34
2019-04-29T01:57:19.289Z,99961.12
2019-04-29T01:59:49.330Z,99966.48
2019-04-29T02:02:19.387Z,99967.09
2019-04-29T02:04:49.784Z,99966.11
2019-04-29T02:07:19.905Z,99962.97
2019-04-29T02:10:14.846Z,99963.63
2019-04-29T02:12:46.841Z,99957.05
2019-04-29T02:15:18.828Z,99955.14
2019-04-29T02:17:50.458Z,99956.07
2019-04-29T02:20:25.124Z,99960.97
2019-04-29T02:23:15.131Z,99956.67
2019-04-29T02:28:14.954Z,99949.02
2019-04-29T02:30:47.900Z,99951.44
2019-04-29T02:33:17.974Z,99947.11
2019-04-29T02:35:48.141Z,99949.70
2019-04-29T02:38:55.480Z,99943.17
2019-04-29T02:41:40.846Z,99943.02
2019-04-29T02:44:12.119Z,99945.14
2019-04-29T02:46:42.138Z,99939.81
2019-04-29T02:49:12.406Z,99942.36
2019-04-29T02:51:45.747Z,99954.42
2019-04-29T02:54:16.814Z,99932.27
2019-04-29T02:56:50.919Z,99930.38
2019-04-29T02:59:26.763Z,99925.22
2019-04-29T03:02:04.514Z,99925.61
2019-04-29T03:04:39.968Z,99930.16
2019-04-29T03:07:10.188Z,99933.58
2019-04-29T03:09:45.659Z,99932.33
2019-04-29T03:12:16.295Z,99929.62
2019-04-29T03:14:46.412Z,99933.27
2019-04-29T03:17:20.943Z,99933.11
2019-04-29T03:20:15.608Z,99939.87
2019-04-29T03:22:46.240Z,99827.66
2019-04-29T03:25:16.325Z,99924.15
2019-04-29T03:27:46.791Z,99924.97
2019-04-29T03:30:17.307Z,99936.58
2019-04-29T03:32:47.619Z,99929.04
2019-04-29T03:35:18.167Z,99896.19
2019-04-29T03:37:48.352Z,99819.41
2019-04-29T03:40:18.771Z,99927.29
2019-04-29T03:42:48.693Z,99930.11
2019-04-29T03:45:18.849Z,99929.95
2019-04-29T03:47:49.052Z,99930.59
2019-04-29T03:50:20.036Z,99928.84
2019-04-29T03:52:50.015Z,99929.46
2019-04-29T03:55:37.689Z,99939.55
2019-04-29T03:57:51.714Z,99937.11
2019-04-29T04:00:21.898Z,99935.81
2019-04-29T04:03:03.948Z,99941.83
2019-04-29T04:05:43.545Z,99936.45
2019-04-29T04:08:19.974Z,99936.02
2019-04-29T04:10:50.130Z,99937.00
2019-04-29T04:13:21.194Z,99933.50
2019-04-29T04:15:51.350Z,99938.83
2019-04-29T04:18:26.845Z,99940.78
2019-04-29T04:20:57.240Z,99942.70
2019-04-29T04:23:27.216Z,99949.41
2019-04-29T04:25:57.436Z,99953.44
2019-04-29T04:28:27.474Z,99946.72
2019-04-29T04:30:57.667Z,99942.36
2019-04-29T04:33:27.970Z,99950.84
2019-04-29T04:35:58.137Z,99944.20
2019-04-29T04:38:33.029Z,99952.42
2019-04-29T04:41:06.520Z,99948.78
2019-04-29T04:43:36.676Z,99939.06
2019-04-29T04:46:04.745Z,99942.06
2019-04-29T04:48:35.093Z,99949.28
2019-04-29T04:51:05.035Z,99940.16
2019-04-29T04:53:35.199Z,99937.78
2019-04-29T04:56:06.346Z,99938.47
2019-04-29T04:58:36.331Z,99947.87
2019-04-29T05:01:06.774Z,99945.69
2019-04-29T05:03:36.781Z,99947.19
2019-04-29T05:06:06.981Z,99941.52
2019-04-29T05:08:37.161Z,99941.92
2019-04-29T05:11:07.274Z,99945.87
2019-04-29T05:13:38.429Z,99947.63
2019-04-29T05:16:08.764Z,99843.25
2019-04-29T05:18:38.679Z,99949.92
2019-04-29T05:21:09.024Z,99950.01
2019-04-29T05:23:41.524Z,99950.01
2019-04-29T05:26:10.634Z,99950.26
2019-04-29T05:28:40.754Z,99872.14
2019-04-29T05:31:10.783Z,99872.14
2019-04-29T05:33:41.758Z,99948.97
2019-04-29T05:36:26.616Z,99948.74
2019-04-29T05:39:07.033Z,99948.31
2019-04-29T05:41:36.984Z,99948.31
2019-04-29T05:44:15.333Z,99936.46
2019-04-29T05:46:48.884Z,99936.46
2019-04-29T05:49:22.981Z,99938.47
2019-04-29T05:52:04.104Z,99938.47
2019-04-29T05:54:34.799Z,99942.20
2019-04-29T05:57:04.928Z,99949.66
2019-04-29T05:59:35.324Z,99944.30
2019-04-29T06:02:05.481Z,99884.73
2019-04-29T06:04:35.684Z,99884.73
2019-04-29T06:07:05.953Z,99940.86
2019-04-29T06:09:36.093Z,99938.91
2019-04-29T06:12:10.524Z,99934.56
2019-04-29T06:14:40.551Z,99929.26
2019-04-29T06:17:10.634Z,99930.98
2019-04-29T06:19:41.058Z,99931.50
2019-04-29T06:22:11.331Z,99940.28
2019-04-29T06:24:42.252Z,99938.17
2019-04-29T06:27:12.336Z,99927.59
2019-04-29T06:29:42.447Z,99922.86
2019-04-29T06:32:12.420Z,99925.98
2019-04-29T06:34:42.451Z,99934.44
2019-04-29T06:37:12.651Z,99937.75
2019-04-29T06:39:42.798Z,99933.29
2019-04-29T06:42:15.536Z,99930.33
2019-04-29T06:44:48.958Z,99927.86
2019-04-29T06:47:17.250Z,99853.30
2019-04-29T06:49:47.338Z,99919.49
2019-04-29T06:52:19.422Z,99919.86
2019-04-29T06:54:49.583Z,99929.39
2019-04-29T06:57:19.815Z,99925.91
2019-04-29T06:59:49.869Z,99926.90
2019-04-29T07:02:20.279Z,99930.11
2019-04-29T07:04:50.573Z,99928.58
2019-04-29T07:07:20.669Z,99929.53
2019-04-29T07:09:51.094Z,99933.83
2019-04-29T07:12:21.232Z,99930.78
2019-04-29T07:14:51.212Z,99927.16
2019-04-29T07:17:24.661Z,99929.53
2019-04-29T07:19:57.491Z,99922.94
2019-04-29T07:22:27.608Z,99922.61
2019-04-29T07:24:58.360Z,99919.00
2019-04-29T07:27:28.436Z,99922.78
2019-04-29T07:32:26.404Z,99914.94
2019-04-29T07:34:56.646Z,99927.53
2019-04-29T07:37:24.793Z,99924.33
2019-04-29T07:39:52.710Z,99918.61
2019-04-29T07:42:25.046Z,99911.00
2019-04-29T07:45:43.319Z,99909.76
2019-04-29T07:48:06.450Z,99911.45
2019-04-29T07:50:34.820Z,99910.91
2019-04-29T07:53:05.351Z,99907.92
2019-04-29T07:55:35.483Z,99909.03
2019-04-29T07:58:05.958Z,99895.66
2019-04-29T08:00:37.452Z,99892.28
2019-04-29T08:03:09.728Z,99886.06
2019-04-29T08:05:40.711Z,99889.91
2019-04-29T08:08:16.725Z,99889.78
2019-04-29T08:10:55.899Z,99887.22
2019-04-29T08:13:23.700Z,99886.72
2019-04-29T08:15:55.053Z,99880.11
2019-04-29T08:18:25.318Z,99877.45
2019-04-29T08:20:56.320Z,99880.89
2019-04-29T08:23:28.024Z,99880.25
2019-04-29T08:26:02.628Z,99887.39
2019-04-29T08:28:33.627Z,99884.25
2019-04-29T08:31:04.356Z,99889.77
2019-04-29T08:33:34.416Z,99888.03
2019-04-29T08:36:04.768Z,99883.05
2019-04-29T08:38:34.962Z,99876.47
2019-04-29T08:41:05.822Z,99883.56
2019-04-29T08:43:56.184Z,99873.45
2019-04-29T08:46:27.751Z,99880.79
2019-04-29T08:49:01.232Z,99873.63
2019-04-29T08:51:31.526Z,99878.09
2019-04-29T08:54:04.026Z,99878.96
2019-04-29T08:56:35.540Z,99879.75
2019-04-29T08:59:07.713Z,99876.83
2019-04-29T09:01:38.288Z,99883.47
2019-04-29T09:04:11.890Z,99874.42
2019-04-29T09:06:42.114Z,99872.38
2019-04-29T09:09:28.727Z,99870.77
2019-04-29T09:13:54.559Z,99883.95
2019-04-29T09:14:19.068Z,99860.83
2019-04-29T09:16:49.366Z,99862.09
2019-04-29T09:19:21.029Z,99871.13
2019-04-29T09:21:55.022Z,99866.75
2019-04-29T09:24:26.432Z,99860.96
2019-04-29T09:27:05.082Z,99859.22
2019-04-29T09:29:35.092Z,99856.57
2019-04-29T09:32:06.738Z,99860.23
2019-04-29T09:34:37.490Z,99844.53
2019-04-29T09:37:07.871Z,99843.16
2019-04-29T09:39:43.814Z,99844.81
2019-04-29T09:42:31.335Z,99851.72
2019-04-29T09:45:24.585Z,99849.22
2019-04-29T09:47:55.629Z,99844.28
2019-04-29T09:50:28.578Z,99840.34
2019-04-29T09:52:59.367Z,99840.58
2019-04-29T09:55:29.916Z,99841.59
2019-04-29T09:58:00.070Z,99846.61
2019-04-29T10:00:52.071Z,99831.02
2019-04-29T10:03:35.467Z,99832.20
2019-04-29T10:06:14.789Z,99830.55
2019-04-29T10:08:46.464Z,99831.86
2019-04-29T10:11:17.956Z,99820.30
2019-04-29T10:13:48.253Z,99816.22
2019-04-29T10:16:31.776Z,99815.08
2019-04-29T10:19:05.502Z,99808.94
2019-04-29T10:21:38.328Z,99800.75
2019-04-29T10:24:09.409Z,99797.13
2019-04-29T10:26:39.365Z,99799.09
2019-04-29T10:29:18.589Z,99796.27
2019-04-29T10:31:47.873Z,99795.43
2019-04-29T10:34:18.838Z,99801.14
2019-04-29T10:36:52.233Z,99801.18
2019-04-29T10:39:52.358Z,99808.44
2019-04-29T10:42:30.214Z,99803.47
2019-04-29T10:45:07.891Z,99807.38
2019-04-29T10:47:58.314Z,99818.33
2019-04-29T10:50:32.838Z,99715.73
2019-04-29T10:53:03.822Z,99801.16
2019-04-29T10:55:33.930Z,99807.15
2019-04-29T10:58:04.771Z,99821.47
2019-04-29T11:01:18.561Z,99817.56
2019-04-29T11:03:50.618Z,99825.02
2019-04-29T11:06:31.453Z,99829.67
2019-04-29T11:09:09.589Z,99826.94
2019-04-29T11:11:40.254Z,99743.43
2019-04-29T11:14:10.890Z,99840.04
2019-04-29T11:16:46.405Z,99834.30
2019-04-29T11:19:13.052Z,99834.11
2019-04-29T11:21:43.846Z,99826.13
2019-04-29T11:24:22.179Z,99819.75
2019-04-29T11:27:11.437Z,99809.74
2019-04-29T11:29:35.810Z,99808.84
2019-04-29T11:32:11.151Z,99805.34
2019-04-29T11:35:00.987Z,99808.28
2019-04-29T11:37:33.085Z,99814.52
2019-04-29T11:40:06.168Z,99803.04
2019-04-29T11:42:41.700Z,99797.71
2019-04-29T11:45:13.561Z,99792.98
2019-04-29T11:47:44.598Z,99781.98
2019-04-29T11:50:27.030Z,99768.88
2019-04-29T11:52:58.003Z,99760.60
2019-04-29T11:55:29.172Z,99749.00
2019-04-29T11:58:05.125Z,99748.50
2019-04-29T12:01:03.935Z,99741.45
2019-04-29T12:03:38.185Z,99736.41
2019-04-29T12:06:10.904Z,99721.98
2019-04-29T12:08:41.784Z,99736.09
2019-04-29T12:11:16.530Z,99628.73
2019-04-29T12:14:12.997Z,99636.70
2019-04-29T12:16:47.784Z,99718.60
2019-04-29T12:19:22.744Z,99711.13
2019-04-29T12:21:55.980Z,99711.94
2019-04-29T12:24:31.970Z,99713.16
2019-04-29T12:27:04.365Z,99703.05
2019-04-29T12:29:37.725Z,99704.86
2019-04-29T12:32:27.365Z,99707.30
2019-04-29T12:35:21.512Z,99705.58
2019-04-29T12:38:11.213Z,99691.26
2019-04-29T12:40:57.903Z,99686.44
2019-04-29T12:43:38.141Z,99687.44
2019-04-29T12:46:16.416Z,99671.84
2019-04-29T12:48:47.602Z,99594.01
2019-04-29T12:51:18.295Z,99671.03
2019-04-29T12:53:50.407Z,99675.27
2019-04-29T12:56:47.946Z,99670.64
2019-04-29T12:59:20.870Z,99670.02
2019-04-29T13:02:24.163Z,99669.02
2019-04-29T13:05:15.423Z,99662.78
2019-04-29T13:08:06.533Z,99660.97
2019-04-29T13:10:57.751Z,99663.67
2019-04-29T13:13:29.104Z,99675.88
2019-04-29T13:16:21.977Z,99671.83
2019-04-29T13:19:29.457Z,99675.45
2019-04-29T13:21:57.583Z,99678.77
2019-04-29T13:24:28.407Z,99671.11
2019-04-29T13:27:15.610Z,99670.80
2019-04-29T13:29:40.424Z,99583.84
2019-04-29T13:32:11.844Z,99670.03
2019-04-29T13:34:45.674Z,99669.80
2019-04-29T13:37:18.979Z,99673.84
2019-04-29T13:39:56.095Z,99666.98
2019-04-29T13:42:31.280Z,99666.70
2019-04-29T13:45:12.947Z,99670.53
2019-04-29T13:48:01.844Z,99669.11
2019-04-29T13:50:45.641Z,99662.75
2019-04-29T13:53:18.615Z,99554.56
2019-04-29T13:55:50.270Z,99652.95
2019-04-29T13:58:29.273Z,99646.02
2019-04-29T14:01:31.253Z,99640.41
2019-04-29T14:04:29.222Z,99638.59
2019-04-29T14:06:59.499Z,99640.41
2019-04-29T14:09:35.144Z,99629.01
2019-04-29T14:12:42.373Z,99631.24
2019-04-29T14:14:37.541Z,99619.64
2019-04-29T14:17:25.330Z,99624.45
2019-04-29T14:19:42.611Z,99625.76
2019-04-29T14:22:21.987Z,99630.11
2019-04-29T14:24:46.951Z,99621.54
2019-04-29T14:27:24.984Z,99615.70
2019-04-29T14:29:51.557Z,99620.43
2019-04-29T14:32:33.246Z,99623.02
2019-04-29T14:35:16.464Z,99620.81
2019-04-29T14:37:55.009Z,99626.86
2019-04-29T14:40:18.740Z,99625.64
2019-04-29T14:43:03.064Z,99624.23
2019-04-29T14:45:58.540Z,99615.34
2019-04-29T14:48:43.118Z,99617.89
2019-04-29T14:51:13.460Z,99619.23
2019-04-29T14:53:55.787Z,99616.11
2019-04-29T14:56:16.034Z,99610.14
2019-04-29T14:58:48.077Z,99615.13
2019-04-29T15:01:33.876Z,99620.13
2019-04-29T15:04:18.485Z,99620.02
2019-04-29T15:06:43.552Z,99622.87
2019-04-29T15:09:20.040Z,99623.72
2019-04-29T15:11:59.320Z,99623.11
2019-04-29T15:14:40.986Z,99620.79
2019-04-29T15:17:23.866Z,99620.59
2019-04-29T15:20:18.288Z,99630.52
2019-04-29T15:22:50.789Z,99623.14
2019-04-29T15:25:23.732Z,99622.90
2019-04-29T15:27:54.790Z,99622.72
2019-04-29T15:30:31.719Z,99630.64
2019-04-29T15:33:05.098Z,99555.77
2019-04-29T15:35:35.642Z,99633.03
2019-04-29T15:38:05.920Z,99629.95
2019-04-29T15:40:42.820Z,99625.02
2019-04-29T15:43:09.385Z,99631.17
2019-04-29T15:45:41.187Z,99624.75
2019-04-29T15:48:11.471Z,99621.68
2019-04-29T15:50:42.521Z,99621.88
2019-04-29T15:53:12.815Z,99635.47
2019-04-29T15:55:43.327Z,99630.62
2019-04-29T15:58:15.428Z,99599.77
2019-04-29T16:00:46.195Z,99639.81
2019-04-29T16:03:18.307Z,99634.77
2019-04-29T16:06:21.829Z,99627.09
2019-04-29T16:09:11.089Z,99622.48
2019-04-29T16:12:16.529Z,99629.81
2019-04-29T16:14:49.195Z,99542.45
2019-04-29T16:17:20.755Z,99626.91
2019-04-29T16:19:52.111Z,99637.69
2019-04-29T16:22:22.681Z,99635.56
2019-04-29T16:24:59.191Z,99639.48
2019-04-29T16:27:25.361Z,99636.10
2019-04-29T16:29:58.678Z,99630.71
2019-04-29T16:32:37.928Z,99636.10
2019-04-29T16:35:08.564Z,99555.69
2019-04-29T16:37:39.086Z,99631.17
2019-04-29T16:40:09.754Z,99631.12
2019-04-29T16:42:58.364Z,99628.41
2019-04-29T16:45:55.400Z,99632.95
2019-04-29T16:48:27.334Z,99633.77
2019-04-29T16:50:57.515Z,99633.77
2019-04-29T16:53:28.049Z,99636.82
2019-04-29T16:56:01.113Z,99640.52
2019-04-29T16:58:31.353Z,99638.94
2019-04-29T17:01:02.099Z,99642.58
2019-04-29T17:03:32.724Z,99633.09
2019-04-29T17:06:03.764Z,99640.31
2019-04-29T17:09:02.953Z,99648.48
2019-04-29T17:11:27.745Z,99640.93
2019-04-29T17:14:03.545Z,99650.52
2019-04-29T17:16:32.424Z,99648.30
2019-04-29T17:19:19.083Z,99652.34
2019-04-29T17:21:50.401Z,99652.70
2019-04-29T17:24:20.409Z,99660.77
2019-04-29T17:27:01.426Z,99653.80
2019-04-29T17:29:49.659Z,99655.72
2019-04-29T17:32:44.649Z,99666.44
2019-04-29T17:35:21.541Z,99663.28
2019-04-29T17:37:50.130Z,99661.13
2019-04-29T17:40:21.386Z,99665.77
2019-04-29T17:43:00.835Z,99660.98
2019-04-29T17:45:39.824Z,99572.92
2019-04-29T17:48:23.186Z,99664.27
2019-04-29T17:51:00.169Z,99668.41
2019-04-29T17:53:45.933Z,99667.69
2019-04-29T17:56:26.992Z,99666.59
2019-04-29T17:59:02.882Z,99675.38
2019-04-29T18:01:51.172Z,99682.27
2019-04-29T18:04:49.667Z,99680.07
2019-04-29T18:07:35.128Z,99677.93
2019-04-29T18:10:29.475Z,99679.89
2019-04-29T18:13:04.249Z,99679.91
2019-04-29T18:15:51.714Z,99678.03
2019-04-29T18:18:17.007Z,99682.25
2019-04-29T18:21:19.478Z,99681.28
2019-04-29T18:24:05.044Z,99682.21
2019-04-29T18:26:44.344Z,99683.77
2019-04-29T18:29:16.198Z,99685.08
2019-04-29T18:31:47.817Z,99690.53
2019-04-29T18:34:18.423Z,99690.29
2019-04-29T18:36:48.693Z,99694.02
2019-04-29T18:39:24.987Z,99700.29
2019-04-29T18:41:58.739Z,99692.88
2019-04-29T18:44:27.915Z,99698.33
2019-04-29T18:46:57.967Z,99701.93
2019-04-29T18:49:28.018Z,99708.16
2019-04-29T18:52:02.159Z,99705.98
2019-04-29T18:54:31.582Z,99709.72
2019-04-29T18:57:01.770Z,99710.13
2019-04-29T18:59:34.470Z,99717.73
2019-04-29T19:02:09.329Z,99721.13
2019-04-29T19:05:05.135Z,99720.36
2019-04-29T19:07:37.216Z,99721.58
2019-04-29T19:10:14.151Z,99718.59
2019-04-29T19:12:40.467Z,99726.84
2019-04-29T19:15:11.991Z,99723.52
2019-04-29T19:17:42.253Z,99725.40
2019-04-29T19:20:18.340Z,99724.49
2019-04-29T19:22:47.286Z,99729.10
2019-04-29T19:25:17.647Z,99731.19
2019-04-29T19:27:47.744Z,99736.50
2019-04-29T19:30:21.018Z,99740.75
2019-04-29T19:32:53.949Z,99732.97
2019-04-29T19:35:22.447Z,99739.20
2019-04-29T19:37:52.703Z,99732.43
2019-04-29T19:40:23.333Z,99738.15
2019-04-29T19:42:55.908Z,99740.06
2019-04-29T19:47:59.604Z,99744.92
2019-04-29T19:50:29.716Z,99746.20
2019-04-29T19:53:00.725Z,99742.73
2019-04-29T19:55:33.292Z,99741.52
2019-04-29T19:58:06.588Z,99698.17
2019-04-29T20:00:38.362Z,99745.26
2019-04-29T20:03:20.565Z,99745.90
2019-04-29T20:05:46.457Z,99746.61
2019-04-29T20:08:37.439Z,99746.03
2019-04-29T20:10:51.947Z,99737.92
2019-04-29T20:13:20.286Z,99738.06
2019-04-29T20:16:12.858Z,99746.57
2019-04-29T20:19:02.231Z,99747.95
2019-04-29T20:21:35.956Z,99748.05
2019-04-29T20:24:09.452Z,99747.20
2019-04-29T20:26:43.769Z,99752.86
2019-04-29T20:29:12.339Z,99748.72
2019-04-29T20:31:48.305Z,99750.67
2019-04-29T20:34:20.320Z,99750.56
2019-04-29T20:36:46.550Z,99749.30
2019-04-29T20:39:23.051Z,99744.81
2019-04-29T20:41:49.243Z,99747.77
2019-04-29T20:44:19.640Z,99742.39
2019-04-29T20:47:12.865Z,99743.17
2019-04-29T20:49:26.243Z,99743.98
2019-04-29T20:52:05.492Z,99744.87
2019-04-29T20:54:37.324Z,99747.02
2019-04-29T20:57:17.636Z,99743.50
2019-04-29T20:59:42.108Z,99736.03
2019-04-29T21:02:13.049Z,99733.34
2019-04-29T21:04:46.278Z,99739.30
2019-04-29T21:07:18.395Z,99738.12
2019-04-29T21:09:48.040Z,99740.63
2019-04-29T21:12:40.363Z,99738.36
2019-04-29T21:15:16.498Z,99739.64
2019-04-29T21:17:46.681Z,99741.97
2019-04-29T21:20:16.829Z,99740.45
2019-04-29T21:22:46.857Z,99748.25
2019-04-29T21:25:17.036Z,99744.31
2019-04-29T21:27:48.569Z,99740.58
2019-04-29T21:30:20.096Z,99745.30
2019-04-29T21:32:50.825Z,99754.53
2019-04-29T21:35:35.336Z,99744.14
2019-04-29T21:38:23.479Z,99748.78
2019-04-29T21:40:58.873Z,99744.98
2019-04-29T21:43:35.455Z,99747.58
2019-04-29T21:46:05.788Z,99751.72
2019-04-29T21:48:37.436Z,99748.52
2019-04-29T21:51:11.233Z,99750.19
2019-04-29T21:53:40.344Z,99746.98
2019-04-29T21:56:09.457Z,99746.70
2019-04-29T21:58:39.990Z,99748.65
2019-04-29T22:01:10.598Z,99751.55
2019-04-29T22:03:41.147Z,99749.74
2019-04-29T22:06:16.230Z,99752.45
2019-04-29T22:08:48.176Z,99754.82
2019-04-29T22:11:18.900Z,99753.70
2019-04-29T22:13:49.709Z,99665.87
2019-04-29T22:16:19.953Z,99757.54
2019-04-29T22:18:51.983Z,99761.48
2019-04-29T22:21:23.346Z,99766.84
2019-04-29T22:23:55.256Z,99763.52
2019-04-29T22:26:26.806Z,99766.65
2019-04-29T22:29:01.814Z,99768.27
2019-04-29T22:31:33.818Z,99766.04
2019-04-29T22:34:02.651Z,99769.27
2019-04-29T22:36:33.281Z,99764.95
2019-04-29T22:39:06.158Z,99765.56
2019-04-29T22:41:58.280Z,99767.27
2019-04-29T22:44:28.779Z,99768.77
2019-04-29T22:46:58.853Z,99764.80
2019-04-29T22:49:29.394Z,99773.89
2019-04-29T22:51:59.510Z,99765.83
2019-04-29T22:54:29.551Z,99677.24
2019-04-29T22:56:59.748Z,99773.06
2019-04-29T22:59:29.714Z,99769.05
2019-04-29T23:02:00.034Z,99769.25
2019-04-29T23:04:30.100Z,99769.85
2019-04-29T23:07:00.039Z,99769.23
2019-04-29T23:09:30.053Z,99768.62
2019-04-29T23:12:00.466Z,99768.72
2019-04-29T23:14:30.393Z,99775.65
2019-04-29T23:17:00.702Z,99769.33
2019-04-29T23:19:30.806Z,99763.27
2019-04-29T23:22:22.107Z,99769.81
2019-04-29T23:25:08.125Z,99762.94
2019-04-29T23:27:38.193Z,99762.02
2019-04-29T23:30:13.641Z,99760.00
2019-04-29T23:32:44.275Z,99766.30
2019-04-29T23:35:14.919Z,99760.05
2019-04-29T23:37:45.736Z,99749.75
2019-04-29T23:40:16.096Z,99750.84
2019-04-29T23:42:47.949Z,99750.84
2019-04-29T23:45:20.931Z,99749.72
2019-04-29T23:47:50.462Z,99754.45
2019-04-29T23:50:20.646Z,99754.45
2019-04-29T23:52:51.962Z,99753.83
2019-04-29T23:55:27.746Z,99750.00
2019-04-29T23:58:09.962Z,99751.99
